createdAt,value
2023-04-24T00:01:44.313Z,15.1
2023-04-24T00:04:11.001Z,15.1
2023-04-24T00:06:37.674Z,15.1
2023-04-24T00:09:04.370Z,15.1
2023-04-24T00:11:31.051Z,15
2023-04-24T00:13:57.732Z,15
2023-04-24T00:16:24.426Z,15
2023-04-24T00:18:51.108Z,15
2023-04-24T00:21:17.785Z,15
2023-04-24T00:23:44.475Z,15
2023-04-24T00:26:11.162Z,15
2023-04-24T00:28:36.380Z,14.9
2023-04-24T00:33:29.737Z,14.9
2023-04-24T00:35:56.427Z,14.9
2023-04-24T00:38:23.122Z,14.9
2023-04-24T00:40:49.794Z,14.9
2023-04-24T00:43:16.487Z,14.9
2023-04-24T00:45:43.225Z,14.9
2023-04-24T00:48:09.863Z,14.9
2023-04-24T00:50:36.547Z,14.9
2023-04-24T00:53:03.236Z,14.9
2023-04-24T00:55:29.910Z,14.9
2023-04-24T00:57:56.629Z,14.9
2023-04-24T01:00:21.834Z,14.8
2023-04-24T01:02:48.497Z,14.8
2023-04-24T01:05:15.191Z,14.8
2023-04-24T01:07:41.884Z,14.8
2023-04-24T01:10:08.557Z,14.8
2023-04-24T01:12:35.232Z,14.8
2023-04-24T01:15:01.930Z,14.8
2023-04-24T01:17:28.619Z,14.8
2023-04-24T01:19:55.300Z,14.7
2023-04-24T01:22:21.983Z,14.7
2023-04-24T01:24:48.675Z,14.7
2023-04-24T01:27:15.360Z,14.7
2023-04-24T01:29:42.030Z,14.7
2023-04-24T01:32:08.719Z,14.7
2023-04-24T01:34:33.951Z,14.7
2023-04-24T01:37:00.624Z,14.7
2023-04-24T01:39:27.312Z,14.7
2023-04-24T01:41:53.994Z,14.7
2023-04-24T01:44:20.667Z,14.7
2023-04-24T01:46:47.368Z,14.7
2023-04-24T01:49:14.047Z,14.7
2023-04-24T01:51:40.733Z,14.6
2023-04-24T01:54:07.423Z,14.6
2023-04-24T01:56:34.096Z,14.7
2023-04-24T01:59:00.796Z,14.6
2023-04-24T02:01:27.466Z,14.6
2023-04-24T02:03:54.162Z,14.6
2023-04-24T02:06:19.378Z,14.6
2023-04-24T02:08:46.066Z,14.6
2023-04-24T02:11:12.740Z,14.6
2023-04-24T02:13:39.439Z,14.6
2023-04-24T02:16:06.119Z,14.6
2023-04-24T02:18:32.804Z,14.6
2023-04-24T02:20:59.494Z,14.6
2023-04-24T02:23:26.177Z,14.6
2023-04-24T02:25:52.849Z,14.5
2023-04-24T02:28:19.529Z,14.6
2023-04-24T02:30:46.224Z,14.5
2023-04-24T02:33:12.913Z,14.5
2023-04-24T02:35:39.584Z,14.5
2023-04-24T02:38:04.807Z,14.5
2023-04-24T02:40:31.499Z,14.5
2023-04-24T02:42:58.168Z,14.5
2023-04-24T02:45:24.933Z,14.4
2023-04-24T02:47:51.569Z,14.4
2023-04-24T02:50:18.238Z,14.4
2023-04-24T02:52:44.922Z,14.4
2023-04-24T02:55:11.616Z,14.4
2023-04-24T02:57:38.276Z,14.4
2023-04-24T03:00:04.974Z,14.4
2023-04-24T03:02:31.664Z,14.4
2023-04-24T03:04:58.338Z,14.4
2023-04-24T03:07:25.039Z,14.4
2023-04-24T03:09:50.264Z,14.4
2023-04-24T03:12:16.936Z,14.4
2023-04-24T03:14:43.614Z,14.4
2023-04-24T03:17:10.296Z,14.4
2023-04-24T03:19:36.979Z,14.3
2023-04-24T03:22:03.671Z,14.3
2023-04-24T03:24:30.389Z,14.3
2023-04-24T03:26:57.075Z,14.3
2023-04-24T03:29:23.728Z,14.3
2023-04-24T03:31:50.190Z,14.3
2023-04-24T03:34:16.861Z,14.3
2023-04-24T03:36:43.543Z,14.3
2023-04-24T03:39:10.240Z,14.3
2023-04-24T03:44:03.617Z,14.2
2023-04-24T03:46:28.824Z,14.2
2023-04-24T03:48:55.558Z,14.2
2023-04-24T03:51:22.195Z,14.2
2023-04-24T03:53:48.867Z,14.2
2023-04-24T03:56:15.566Z,14.2
2023-04-24T03:58:42.244Z,14.2
2023-04-24T04:01:08.938Z,14.2
2023-04-24T04:03:35.612Z,14.2
2023-04-24T04:06:02.352Z,14.2
2023-04-24T04:08:28.983Z,14.2
2023-04-24T04:10:55.670Z,14.2
2023-04-24T04:13:22.352Z,14.2
2023-04-24T04:15:49.127Z,14.2
2023-04-24T04:18:14.258Z,14.2
2023-04-24T04:20:40.932Z,14.1
2023-04-24T04:23:07.623Z,14.1
2023-04-24T04:25:34.317Z,14.1
2023-04-24T04:28:00.999Z,14.1
2023-04-24T04:30:27.695Z,14.1
2023-04-24T04:32:54.355Z,14.1
2023-04-24T04:35:21.063Z,14.1
2023-04-24T04:37:47.726Z,14.1
2023-04-24T04:40:14.421Z,14.1
2023-04-24T04:42:41.103Z,14.1
2023-04-24T04:45:07.796Z,14.1
2023-04-24T04:47:34.463Z,14.1
2023-04-24T04:50:01.150Z,14.1
2023-04-24T04:52:26.376Z,14.1
2023-04-24T04:54:53.057Z,14.1
2023-04-24T04:59:46.436Z,14
2023-04-24T05:02:13.105Z,14
2023-04-24T05:04:39.792Z,14
2023-04-24T05:07:06.483Z,14
2023-04-24T05:09:33.165Z,14
2023-04-24T05:11:59.850Z,13.9
2023-04-24T05:14:26.536Z,13.9
2023-04-24T05:16:53.222Z,13.9
2023-04-24T05:19:19.900Z,13.9
2023-04-24T05:21:46.590Z,13.9
2023-04-24T05:24:13.259Z,13.9
2023-04-24T05:26:39.946Z,13.9
2023-04-24T05:29:05.204Z,13.9
2023-04-24T05:31:31.862Z,13.9
2023-04-24T05:33:58.549Z,13.9
2023-04-24T05:36:25.244Z,13.9
2023-04-24T05:38:51.913Z,13.9
2023-04-24T05:41:18.605Z,13.9
2023-04-24T05:43:45.282Z,13.9
2023-04-24T05:46:11.964Z,13.9
2023-04-24T05:48:38.681Z,13.9
2023-04-24T05:51:05.329Z,13.9
2023-04-24T05:53:32.026Z,13.9
2023-04-24T05:55:58.700Z,13.8
2023-04-24T05:58:25.394Z,13.8
2023-04-24T06:00:50.627Z,13.8
2023-04-24T06:03:17.301Z,13.8
2023-04-24T06:08:10.668Z,13.8
2023-04-24T06:13:04.039Z,13.8
2023-04-24T06:15:30.713Z,13.7
2023-04-24T06:17:57.410Z,13.8
2023-04-24T06:20:24.092Z,13.7
2023-04-24T06:25:17.462Z,13.7
2023-04-24T06:27:42.716Z,13.7
2023-04-24T06:30:07.933Z,13.7
2023-04-24T06:32:34.669Z,13.7
2023-04-24T06:34:59.865Z,13.7
2023-04-24T06:37:26.546Z,13.7
2023-04-24T06:39:53.261Z,13.7
2023-04-24T06:42:19.900Z,13.7
2023-04-24T06:44:46.594Z,13.7
2023-04-24T06:47:13.279Z,13.7
2023-04-24T06:49:40.029Z,13.7
2023-04-24T06:52:06.663Z,13.7
2023-04-24T06:54:31.885Z,13.7
2023-04-24T06:56:57.117Z,13.7
2023-04-24T06:59:23.796Z,13.7
2023-04-24T07:01:50.487Z,13.7
2023-04-24T07:04:17.170Z,13.7
2023-04-24T07:06:43.858Z,13.8
2023-04-24T07:09:10.565Z,13.8
2023-04-24T07:11:37.234Z,13.9
2023-04-24T07:14:03.935Z,13.9
2023-04-24T07:16:30.607Z,13.9
2023-04-24T07:18:57.270Z,13.9
2023-04-24T07:21:23.964Z,14
2023-04-24T07:23:50.664Z,14
2023-04-24T07:26:17.337Z,14.1
2023-04-24T07:28:42.550Z,14.1
2023-04-24T07:31:09.261Z,14.1
2023-04-24T07:33:35.943Z,14.1
2023-04-24T07:36:02.682Z,14.1
2023-04-24T07:38:29.311Z,14.2
2023-04-24T07:40:55.964Z,14.2
2023-04-24T07:43:22.663Z,14.2
2023-04-24T07:45:49.352Z,14.2
2023-04-24T07:48:16.031Z,14.2
2023-04-24T07:50:42.708Z,14.2
2023-04-24T07:53:09.381Z,14.2
2023-04-24T07:55:36.121Z,14.2
2023-04-24T07:58:02.761Z,14.2
2023-04-24T08:00:27.977Z,14.2
2023-04-24T08:02:54.677Z,14.2
2023-04-24T08:05:21.343Z,14.2
2023-04-24T08:07:48.178Z,14.2
2023-04-24T08:10:14.722Z,14.2
2023-04-24T08:12:41.403Z,14.2
2023-04-24T08:15:08.090Z,14.2
2023-04-24T08:17:34.772Z,14.2
2023-04-24T08:20:01.457Z,14.2
2023-04-24T08:22:28.150Z,14.2
2023-04-24T08:24:54.825Z,14.2
2023-04-24T08:27:21.508Z,14.2
2023-04-24T08:29:48.193Z,14.2
2023-04-24T08:32:13.411Z,14.2
2023-04-24T08:34:40.102Z,14.2
2023-04-24T08:37:06.763Z,14.2
2023-04-24T08:39:33.456Z,14.2
2023-04-24T08:42:00.146Z,14.2
2023-04-24T08:44:26.849Z,14
2023-04-24T08:46:53.568Z,13.9
2023-04-24T08:49:20.205Z,14.1
2023-04-24T08:51:46.871Z,14.1
2023-04-24T08:54:13.569Z,14.2
2023-04-24T08:56:40.259Z,14.2
2023-04-24T08:59:06.938Z,14.2
2023-04-24T09:01:33.609Z,14.2
2023-04-24T09:03:58.843Z,14.1
2023-04-24T09:06:25.583Z,14.1
2023-04-24T09:08:52.221Z,14.1
2023-04-24T09:11:18.890Z,14.1
2023-04-24T09:13:45.572Z,14.1
2023-04-24T09:16:12.261Z,14.1
2023-04-24T09:23:32.306Z,14.1
2023-04-24T09:25:58.985Z,14.1
2023-04-24T09:28:25.680Z,14.1
2023-04-24T09:30:52.356Z,14.1
2023-04-24T09:33:19.050Z,14.1
2023-04-24T09:35:44.267Z,14
2023-04-24T09:38:10.946Z,14.1
2023-04-24T09:40:37.641Z,14
2023-04-24T09:43:04.323Z,14
2023-04-24T09:45:31.014Z,14
2023-04-24T09:47:57.705Z,14
2023-04-24T09:50:24.375Z,14
2023-04-24T09:52:51.065Z,14
2023-04-24T09:55:17.746Z,14
2023-04-24T10:00:11.110Z,13.9
2023-04-24T10:02:36.355Z,13.9
2023-04-24T10:05:03.053Z,13.9
2023-04-24T10:07:29.729Z,14
2023-04-24T10:09:55.031Z,14
2023-04-24T10:12:21.617Z,14
2023-04-24T10:14:48.311Z,14
2023-04-24T10:17:14.990Z,14.1
2023-04-24T10:19:41.674Z,14.1
2023-04-24T10:22:08.383Z,14.1
2023-04-24T10:24:35.053Z,14.1
2023-04-24T10:27:01.731Z,14.1
2023-04-24T10:29:28.426Z,14.1
2023-04-24T10:31:55.112Z,14.1
2023-04-24T10:34:21.796Z,14.1
2023-04-24T10:36:48.473Z,14.1
2023-04-24T10:39:13.737Z,14.1
2023-04-24T10:41:40.418Z,14.1
2023-04-24T10:44:05.618Z,14.1
2023-04-24T10:46:32.294Z,14.1
2023-04-24T10:48:58.979Z,14.1
2023-04-24T10:51:25.682Z,14.1
2023-04-24T10:53:52.352Z,14.1
2023-04-24T10:56:19.059Z,14.2
2023-04-24T10:58:45.755Z,14.2
2023-04-24T11:01:12.436Z,14.2
2023-04-24T11:03:39.117Z,14.2
2023-04-24T11:08:32.693Z,14.2
2023-04-24T11:10:59.237Z,14.2
2023-04-24T11:13:25.828Z,14.2
2023-04-24T11:15:51.055Z,14.2
2023-04-24T11:18:17.903Z,14.2
2023-04-24T11:20:44.534Z,14.2
2023-04-24T11:23:11.277Z,14.2
2023-04-24T11:25:37.909Z,14.1
2023-04-24T11:28:04.712Z,14.1
2023-04-24T11:30:31.300Z,14.1
2023-04-24T11:32:57.951Z,14.1
2023-04-24T11:35:24.695Z,14.1
2023-04-24T11:37:51.394Z,14.1
2023-04-24T11:40:18.026Z,14.1
2023-04-24T11:42:44.606Z,14.1
2023-04-24T11:45:11.284Z,14.1
2023-04-24T11:47:38.029Z,14.1
2023-04-24T11:50:04.804Z,14.1
2023-04-24T11:52:29.871Z,14.1
2023-04-24T11:54:56.546Z,14.1
2023-04-24T11:57:23.228Z,14.1
2023-04-24T11:59:50.060Z,14.1
2023-04-24T12:02:16.608Z,14
2023-04-24T12:04:43.283Z,14
2023-04-24T12:07:09.974Z,14
2023-04-24T12:09:36.658Z,14
2023-04-24T12:12:03.340Z,14
2023-04-24T12:14:30.024Z,14
2023-04-24T12:16:56.697Z,14
2023-04-24T12:21:50.074Z,14
2023-04-24T12:24:15.292Z,14
2023-04-24T12:26:41.983Z,13.9
2023-04-24T12:29:08.658Z,14
2023-04-24T12:31:35.361Z,13.9
2023-04-24T12:34:02.034Z,13.9
2023-04-24T12:36:28.719Z,13.9
2023-04-24T12:38:55.398Z,13.9
2023-04-24T12:41:22.089Z,13.9
2023-04-24T12:43:48.781Z,13.9
2023-04-24T12:46:15.456Z,13.9
2023-04-24T12:48:42.150Z,13.9
2023-04-24T12:51:08.828Z,13.9
2023-04-24T12:53:35.515Z,14
2023-04-24T12:56:02.191Z,14
2023-04-24T12:58:27.429Z,14
2023-04-24T13:00:54.104Z,14
2023-04-24T13:03:20.838Z,14
2023-04-24T13:05:47.477Z,13.9
2023-04-24T13:08:14.161Z,13.9
2023-04-24T13:10:40.852Z,13.9
2023-04-24T13:13:07.527Z,13.9
2023-04-24T13:15:34.221Z,13.9
2023-04-24T13:18:00.898Z,13.9
2023-04-24T13:20:27.594Z,13.9
2023-04-24T13:22:54.280Z,13.9
2023-04-24T13:25:20.976Z,13.9
2023-04-24T13:27:47.638Z,13.9
2023-04-24T13:30:14.318Z,13.9
2023-04-24T13:32:41.018Z,13.9
2023-04-24T13:35:06.230Z,13.9
2023-04-24T13:37:32.914Z,13.9
2023-04-24T13:39:59.620Z,13.9
2023-04-24T13:42:26.286Z,13.9
2023-04-24T13:44:52.977Z,13.9
2023-04-24T13:47:19.660Z,13.9
2023-04-24T13:49:46.343Z,13.9
2023-04-24T13:52:13.017Z,13.9
2023-04-24T13:54:39.703Z,13.9
2023-04-24T13:57:06.447Z,13.9
2023-04-24T13:59:33.073Z,13.9
2023-04-24T14:01:59.757Z,13.9
2023-04-24T14:04:26.448Z,13.9
2023-04-24T14:06:51.665Z,13.9
2023-04-24T14:09:18.355Z,13.9
2023-04-24T14:11:45.029Z,13.9
2023-04-24T14:14:11.714Z,13.9
2023-04-24T14:16:38.407Z,13.9
2023-04-24T14:19:05.099Z,13.9
2023-04-24T14:21:31.776Z,13.9
2023-04-24T14:23:58.458Z,13.9
2023-04-24T14:26:25.139Z,13.9
2023-04-24T14:28:51.836Z,13.9
2023-04-24T14:31:18.520Z,13.9
2023-04-24T14:33:45.197Z,13.9
2023-04-24T14:36:11.888Z,13.9
2023-04-24T14:38:37.106Z,13.9
2023-04-24T14:41:03.778Z,13.9
2023-04-24T14:43:30.454Z,13.9
2023-04-24T14:48:22.384Z,13.9
2023-04-24T14:50:49.070Z,13.9
2023-04-24T14:53:14.303Z,13.9
2023-04-24T14:55:40.990Z,13.8
2023-04-24T14:58:07.735Z,13.6
2023-04-24T15:00:34.382Z,13.6
2023-04-24T15:03:01.058Z,13.6
2023-04-24T15:05:27.752Z,13.5
2023-04-24T15:07:54.418Z,13.5
2023-04-24T15:12:47.788Z,13.3
2023-04-24T15:15:14.477Z,13.3
2023-04-24T15:17:41.156Z,13.2
2023-04-24T15:20:07.843Z,13.2
2023-04-24T15:22:34.522Z,13.1
2023-04-24T15:24:59.740Z,13.1
2023-04-24T15:27:26.427Z,13.1
2023-04-24T15:29:53.108Z,13.1
2023-04-24T15:32:19.791Z,13.2
2023-04-24T15:34:46.457Z,13.1
2023-04-24T15:37:13.148Z,13
2023-04-24T15:39:39.837Z,12.9
2023-04-24T15:42:06.522Z,12.9
2023-04-24T15:44:33.206Z,13
2023-04-24T15:46:59.902Z,13
2023-04-24T15:49:26.561Z,13
2023-04-24T15:51:53.261Z,13
2023-04-24T15:54:19.934Z,13
2023-04-24T15:56:45.175Z,13
2023-04-24T15:59:11.863Z,13
2023-04-24T16:01:38.523Z,13
2023-04-24T16:04:05.230Z,13.1
2023-04-24T16:06:31.908Z,13.1
2023-04-24T16:08:58.585Z,13.1
2023-04-24T16:13:51.957Z,12.6
2023-04-24T16:16:18.643Z,12.7
2023-04-24T16:18:45.347Z,12.7
2023-04-24T16:21:12.022Z,12.7
2023-04-24T16:23:38.703Z,12.6
2023-04-24T16:26:05.396Z,12.7
2023-04-24T16:28:30.606Z,12.7
2023-04-24T16:30:57.281Z,12.8
2023-04-24T16:33:23.972Z,12.7
2023-04-24T16:35:50.656Z,12.7
2023-04-24T16:38:17.342Z,12.7
2023-04-24T16:40:44.035Z,12.7
2023-04-24T16:45:37.395Z,12.7
2023-04-24T16:48:04.082Z,12.7
2023-04-24T16:50:30.767Z,12.7
2023-04-24T16:52:57.450Z,12.7
2023-04-24T16:55:24.146Z,12.7
2023-04-24T16:57:50.829Z,12.7
2023-04-24T17:00:16.052Z,12.7
2023-04-24T17:02:42.724Z,12.7
2023-04-24T17:05:09.405Z,12.8
2023-04-24T17:07:36.083Z,12.8
2023-04-24T17:10:02.772Z,12.7
2023-04-24T17:12:29.466Z,12.7
2023-04-24T17:14:56.133Z,12.7
2023-04-24T17:17:22.821Z,12.7
2023-04-24T17:19:49.511Z,12.7
2023-04-24T17:22:16.199Z,12.7
2023-04-24T17:24:42.885Z,12.7
2023-04-24T17:27:09.566Z,12.6
2023-04-24T17:29:36.264Z,12.6
2023-04-24T17:32:01.473Z,12.6
2023-04-24T17:34:28.153Z,12.6
2023-04-24T17:36:54.839Z,12.6
2023-04-24T17:39:21.520Z,12.6
2023-04-24T17:41:48.213Z,12.6
2023-04-24T17:44:14.886Z,12.5
2023-04-24T17:46:41.579Z,12.5
2023-04-24T17:49:08.267Z,12.4
2023-04-24T17:51:34.950Z,12.4
2023-04-24T17:54:01.634Z,12.4
2023-04-24T17:56:28.325Z,12.4
2023-04-24T17:58:55.015Z,12.3
2023-04-24T18:01:21.691Z,12.3
2023-04-24T18:03:48.397Z,12.4
2023-04-24T18:06:13.597Z,12.4
2023-04-24T18:08:40.308Z,12.4
2023-04-24T18:11:06.960Z,12.4
2023-04-24T18:13:33.654Z,12.4
2023-04-24T18:16:00.338Z,12.4
2023-04-24T18:18:27.006Z,12.4
2023-04-24T18:20:53.708Z,12.4
2023-04-24T18:23:20.387Z,12.4
2023-04-24T18:25:47.082Z,12.4
2023-04-24T18:28:13.763Z,12.5
2023-04-24T18:30:40.439Z,12.5
2023-04-24T18:33:07.132Z,12.6
2023-04-24T18:35:33.813Z,12.6
2023-04-24T18:37:59.034Z,12.6
2023-04-24T18:40:25.718Z,12.6
2023-04-24T18:42:52.401Z,12.6
2023-04-24T18:45:19.099Z,12.7
2023-04-24T18:47:45.782Z,12.7
2023-04-24T18:50:12.457Z,12.7
2023-04-24T18:52:39.140Z,12.7
2023-04-24T18:55:05.830Z,12.7
2023-04-24T18:57:32.506Z,12.8
2023-04-24T18:59:59.202Z,12.8
2023-04-24T19:02:25.869Z,12.8
2023-04-24T19:04:52.546Z,12.8
2023-04-24T19:07:19.254Z,12.8
2023-04-24T19:09:44.477Z,12.8
2023-04-24T19:12:11.166Z,12.8
2023-04-24T19:14:37.838Z,12.9
2023-04-24T19:17:04.525Z,12.8
2023-04-24T19:19:31.201Z,12.8
2023-04-24T19:21:57.890Z,12.9
2023-04-24T19:24:24.583Z,12.9
2023-04-24T19:26:51.255Z,12.9
2023-04-24T19:31:44.614Z,12.9
2023-04-24T19:34:11.314Z,12.9
2023-04-24T19:36:38.003Z,12.9
2023-04-24T19:39:04.682Z,12.9
2023-04-24T19:41:29.902Z,12.9
2023-04-24T19:46:23.264Z,12.9
2023-04-24T19:48:49.975Z,12.9
2023-04-24T19:51:16.653Z,12.9
2023-04-24T19:53:43.340Z,12.9
2023-04-24T19:56:10.023Z,12.9
2023-04-24T19:58:36.720Z,12.9
2023-04-24T20:01:03.395Z,12.9
2023-04-24T20:03:30.083Z,12.9
2023-04-24T20:05:56.742Z,12.9
2023-04-24T20:08:23.427Z,12.9
2023-04-24T20:10:50.119Z,12.9
2023-04-24T20:13:15.335Z,12.8
2023-04-24T20:15:42.020Z,12.9
2023-04-24T20:18:08.715Z,12.8
2023-04-24T20:20:35.387Z,12.8
2023-04-24T20:23:02.082Z,12.8
2023-04-24T20:25:28.740Z,12.8
2023-04-24T20:27:55.457Z,12.8
2023-04-24T20:30:22.120Z,12.8
2023-04-24T20:32:48.824Z,12.8
2023-04-24T20:35:15.488Z,12.8
2023-04-24T20:37:42.191Z,12.8
2023-04-24T20:40:08.863Z,12.8
2023-04-24T20:42:35.564Z,12.8
2023-04-24T20:45:00.786Z,12.8
2023-04-24T20:49:54.143Z,12.8
2023-04-24T20:52:20.820Z,12.8
2023-04-24T20:54:47.517Z,12.8
2023-04-24T20:57:14.194Z,12.8
2023-04-24T20:59:40.877Z,12.7
2023-04-24T21:02:07.567Z,12.8
2023-04-24T21:04:34.247Z,12.7
2023-04-24T21:07:00.949Z,12.8
2023-04-24T21:09:27.618Z,12.7
2023-04-24T21:11:54.300Z,12.7
2023-04-24T21:14:20.995Z,12.7
2023-04-24T21:16:46.205Z,12.7
2023-04-24T21:19:12.893Z,12.7
2023-04-24T21:21:39.580Z,12.7
2023-04-24T21:24:06.266Z,12.7
2023-04-24T21:26:32.958Z,12.7
2023-04-24T21:28:59.631Z,12.7
2023-04-24T21:31:26.321Z,12.7
2023-04-24T21:33:53.006Z,12.7
2023-04-24T21:36:19.690Z,12.7
2023-04-24T21:38:46.382Z,12.7
2023-04-24T21:41:13.045Z,12.7
2023-04-24T21:43:39.736Z,12.7
2023-04-24T21:46:06.433Z,12.7
2023-04-24T21:48:31.647Z,12.7
2023-04-24T21:50:58.324Z,12.7
2023-04-24T21:53:25.005Z,12.7
2023-04-24T21:55:51.710Z,12.7
2023-04-24T21:58:18.389Z,12.7
2023-04-24T22:00:45.081Z,12.7
2023-04-24T22:03:11.766Z,12.7
2023-04-24T22:05:38.448Z,12.7
2023-04-24T22:08:05.123Z,12.7
2023-04-24T22:10:31.823Z,12.7
2023-04-24T22:12:58.499Z,12.7
2023-04-24T22:15:25.189Z,12.7
2023-04-24T22:17:51.870Z,12.7
2023-04-24T22:20:18.564Z,12.7
2023-04-24T22:22:43.818Z,12.7
2023-04-24T22:25:10.474Z,12.7
2023-04-24T22:27:37.191Z,12.7
2023-04-24T22:30:03.858Z,12.6
2023-04-24T22:32:30.508Z,12.6
2023-04-24T22:37:23.876Z,12.6
2023-04-24T22:39:50.570Z,12.6
2023-04-24T22:42:17.246Z,12.6
2023-04-24T22:44:43.933Z,12.6
2023-04-24T22:47:10.627Z,12.6
2023-04-24T22:49:37.310Z,12.6
2023-04-24T22:52:04.005Z,12.6
2023-04-24T22:54:29.201Z,12.6
2023-04-24T22:56:55.902Z,12.6
2023-04-24T22:59:22.576Z,12.6
2023-04-24T23:01:49.256Z,12.6
2023-04-24T23:04:14.555Z,12.6
2023-04-24T23:06:41.191Z,12.6
2023-04-24T23:09:07.884Z,12.6
2023-04-24T23:11:34.557Z,12.6
2023-04-24T23:14:01.282Z,12.6
2023-04-24T23:16:28.000Z,12.6
2023-04-24T23:18:54.625Z,12.6
2023-04-24T23:21:21.317Z,12.6
2023-04-24T23:23:47.991Z,12.6
2023-04-24T23:26:14.672Z,12.6
2023-04-24T23:28:41.345Z,12.6
2023-04-24T23:31:08.029Z,12.6
2023-04-24T23:33:34.746Z,12.6
2023-04-24T23:35:59.948Z,12.6
2023-04-24T23:38:26.624Z,12.6
2023-04-24T23:40:53.317Z,12.5
2023-04-24T23:43:19.998Z,12.6
2023-04-24T23:45:46.681Z,12.5
2023-04-24T23:48:13.368Z,12.5
2023-04-24T23:50:40.053Z,12.5
2023-04-24T23:53:06.745Z,12.5
2023-04-24T23:55:33.425Z,12.5
2023-04-24T23:58:00.113Z,12.5
